createdAt,value
2018-09-13T00:02:27.018Z,99360.39
2018-09-13T00:04:55.485Z,99371.30
2018-09-13T00:07:23.990Z,99367.95
2018-09-13T00:09:52.601Z,99368.77
2018-09-13T00:12:21.064Z,99367.27
2018-09-13T00:14:49.589Z,99365.44
2018-09-13T00:17:18.113Z,99363.61
2018-09-13T00:19:48.127Z,99364.09
2018-09-13T00:22:16.638Z,99362.45
2018-09-13T00:24:45.368Z,99353.06
2018-09-13T00:27:13.813Z,99358.27
2018-09-13T00:29:42.352Z,99350.41
2018-09-13T00:32:10.848Z,99353.94
2018-09-13T00:34:39.399Z,99352.91
2018-09-13T00:37:08.000Z,99355.27
2018-09-13T00:39:36.476Z,99353.94
2018-09-13T00:42:05.008Z,99351.11
2018-09-13T00:44:33.555Z,99351.25
2018-09-13T00:47:02.065Z,99350.75
2018-09-13T00:49:30.553Z,99341.38
2018-09-13T00:51:59.087Z,99337.18
2018-09-13T00:54:27.593Z,99338.19
2018-09-13T00:56:56.058Z,99337.84
2018-09-13T00:59:25.263Z,99339.70
2018-09-13T01:01:54.713Z,99335.00
2018-09-13T01:04:23.206Z,99328.64
2018-09-13T01:06:51.684Z,99337.02
2018-09-13T01:09:21.092Z,99329.09
2018-09-13T01:11:49.540Z,99332.94
2018-09-13T01:14:18.105Z,99332.42
2018-09-13T01:16:47.549Z,99335.80
2018-09-13T01:19:16.108Z,99329.61
2018-09-13T01:21:44.587Z,99334.28
2018-09-13T01:24:13.095Z,99329.77
2018-09-13T01:26:41.596Z,99322.37
2018-09-13T01:29:10.613Z,99320.90
2018-09-13T01:31:39.283Z,99322.05
2018-09-13T01:34:07.736Z,99324.22
2018-09-13T01:36:37.004Z,99326.20
2018-09-13T01:39:08.185Z,99324.19
2018-09-13T01:41:36.858Z,99323.84
2018-09-13T01:44:05.554Z,99328.20
2018-09-13T01:46:34.130Z,99333.71
2018-09-13T01:49:03.557Z,99335.03
2018-09-13T01:51:32.055Z,99329.70
2018-09-13T01:54:00.568Z,99331.88
2018-09-13T01:56:29.108Z,99329.85
2018-09-13T01:58:58.137Z,99335.16
2018-09-13T02:01:26.644Z,99335.83
2018-09-13T02:03:55.514Z,99335.02
2018-09-13T02:06:23.949Z,99340.67
2018-09-13T02:08:52.432Z,99334.83
2018-09-13T02:11:21.034Z,99330.98
2018-09-13T02:13:50.065Z,99329.72
2018-09-13T02:16:18.570Z,99325.54
2018-09-13T02:18:47.140Z,99326.36
2018-09-13T02:21:15.695Z,99324.40
2018-09-13T02:23:44.735Z,99328.26
2018-09-13T02:26:13.499Z,99323.08
2018-09-13T02:28:42.296Z,99323.63
2018-09-13T02:31:10.765Z,99323.28
2018-09-13T02:33:39.282Z,99326.62
2018-09-13T02:36:07.776Z,99337.32
2018-09-13T02:38:36.261Z,99332.80
2018-09-13T02:41:04.807Z,99330.77
2018-09-13T02:43:33.304Z,99322.91
2018-09-13T02:46:01.928Z,99321.16
2018-09-13T02:48:30.450Z,99315.66
2018-09-13T02:50:59.430Z,99316.69
2018-09-13T02:53:27.927Z,99314.20
2018-09-13T02:55:57.049Z,99309.33
2018-09-13T02:58:25.592Z,99317.02
2018-09-13T03:00:54.112Z,99316.86
2018-09-13T03:03:22.579Z,99315.03
2018-09-13T03:05:51.187Z,99313.70
2018-09-13T03:08:19.762Z,99310.20
2018-09-13T03:10:48.235Z,99313.88
2018-09-13T03:13:16.743Z,99307.66
2018-09-13T03:15:45.814Z,99301.66
2018-09-13T03:18:14.370Z,99300.68
2018-09-13T03:20:43.622Z,99300.66
2018-09-13T03:23:12.145Z,99300.98
2018-09-13T03:25:40.667Z,99296.81
2018-09-13T03:28:09.194Z,99290.48
2018-09-13T03:30:38.315Z,99299.14
2018-09-13T03:33:07.000Z,99292.48
2018-09-13T03:35:35.531Z,99291.98
2018-09-13T03:38:04.109Z,99286.81
2018-09-13T03:40:32.575Z,99289.00
2018-09-13T03:43:01.147Z,99288.82
2018-09-13T03:45:29.695Z,99290.98
2018-09-13T03:47:58.260Z,99290.00
2018-09-13T03:50:26.791Z,99294.68
2018-09-13T03:52:55.299Z,99295.52
2018-09-13T03:55:23.800Z,99296.38
2018-09-13T03:57:52.329Z,99298.54
2018-09-13T04:00:20.935Z,99300.22
2018-09-13T04:02:49.520Z,99301.20
2018-09-13T04:05:18.062Z,99294.83
2018-09-13T04:07:46.526Z,99301.90
2018-09-13T04:10:14.995Z,99295.89
2018-09-13T04:12:43.568Z,99292.03
2018-09-13T04:15:12.050Z,99296.88
2018-09-13T04:17:40.543Z,99292.20
2018-09-13T04:20:09.156Z,99295.20
2018-09-13T04:22:37.705Z,99295.56
2018-09-13T04:25:06.227Z,99289.48
2018-09-13T04:27:34.687Z,99288.66
2018-09-13T04:30:03.199Z,99288.30
2018-09-13T04:32:31.741Z,99286.30
2018-09-13T04:35:00.253Z,99291.83
2018-09-13T04:37:28.832Z,99293.72
2018-09-13T04:39:57.510Z,99289.35
2018-09-13T04:42:26.069Z,99290.52
2018-09-13T04:44:54.569Z,99283.70
2018-09-13T04:47:23.704Z,99281.66
2018-09-13T04:49:52.244Z,99287.02
2018-09-13T04:52:20.816Z,99283.85
2018-09-13T04:54:49.327Z,99290.70
2018-09-13T04:57:17.867Z,99285.38
2018-09-13T04:59:46.465Z,99283.70
2018-09-13T05:02:15.597Z,99279.99
2018-09-13T05:04:44.108Z,99285.36
2018-09-13T05:07:13.447Z,98696.57
2018-09-13T05:09:41.958Z,99284.86
2018-09-13T05:12:10.504Z,99287.88
2018-09-13T05:14:39.002Z,99289.87
2018-09-13T05:17:07.592Z,99284.00
2018-09-13T05:19:36.085Z,99282.16
2018-09-13T05:22:04.648Z,99288.55
2018-09-13T05:24:33.126Z,99296.09
2018-09-13T05:27:01.645Z,99302.63
2018-09-13T05:29:30.144Z,99312.17
2018-09-13T05:31:58.633Z,99297.78
2018-09-13T05:34:27.613Z,99296.77
2018-09-13T05:36:56.936Z,99301.95
2018-09-13T05:39:25.459Z,99299.29
2018-09-13T05:41:54.036Z,99296.58
2018-09-13T05:44:22.497Z,99295.92
2018-09-13T05:46:51.056Z,99290.77
2018-09-13T05:49:19.561Z,99297.45
2018-09-13T05:51:48.092Z,99295.67
2018-09-13T05:54:16.612Z,99296.16
2018-09-13T05:56:47.854Z,99298.84
2018-09-13T05:59:17.513Z,99301.02
2018-09-13T06:01:46.422Z,99301.67
2018-09-13T06:04:14.941Z,99306.19
2018-09-13T06:06:43.427Z,99318.42
2018-09-13T06:09:11.885Z,99319.77
2018-09-13T06:11:40.392Z,99324.61
2018-09-13T06:14:08.877Z,99325.27
2018-09-13T06:16:37.725Z,99322.06
2018-09-13T06:19:06.300Z,99051.91
2018-09-13T06:21:34.765Z,99325.08
2018-09-13T06:24:03.504Z,99328.27
2018-09-13T06:26:32.074Z,99322.56
2018-09-13T06:29:00.562Z,99314.83
2018-09-13T06:31:29.075Z,99317.78
2018-09-13T06:33:57.597Z,99320.52
2018-09-13T06:36:26.137Z,99324.05
2018-09-13T06:38:54.637Z,99319.83
2018-09-13T06:41:23.101Z,99314.77
2018-09-13T06:43:51.744Z,99314.53
2018-09-13T06:46:20.256Z,99313.47
2018-09-13T06:48:48.811Z,99308.39
2018-09-13T06:51:17.364Z,99303.92
2018-09-13T06:53:46.483Z,99317.05
2018-09-13T06:56:14.980Z,99158.58
2018-09-13T06:58:43.523Z,99326.62
2018-09-13T07:01:12.772Z,99332.20
2018-09-13T07:03:41.564Z,99335.98
2018-09-13T07:06:10.077Z,99322.07
2018-09-13T07:08:39.239Z,99318.36
2018-09-13T07:11:07.806Z,99311.43
2018-09-13T07:13:36.462Z,99313.69
2018-09-13T07:16:05.544Z,99315.91
2018-09-13T07:18:34.075Z,99315.25
2018-09-13T07:21:03.481Z,99316.44
2018-09-13T07:23:32.019Z,99320.05
2018-09-13T07:26:00.436Z,99322.71
2018-09-13T07:28:28.981Z,99317.68
2018-09-13T07:30:57.634Z,99327.98
2018-09-13T07:33:26.775Z,99325.70
2018-09-13T07:35:55.249Z,99337.08
2018-09-13T07:38:24.606Z,99333.61
2018-09-13T07:40:53.734Z,99337.16
2018-09-13T07:43:22.351Z,99337.25
2018-09-13T07:45:50.995Z,99333.66
2018-09-13T07:48:20.436Z,99342.89
2018-09-13T07:50:48.926Z,99338.82
2018-09-13T07:53:17.488Z,99334.20
2018-09-13T07:55:46.033Z,99331.20
2018-09-13T07:58:14.609Z,99329.84
2018-09-13T08:00:43.126Z,99320.66
2018-09-13T08:03:12.346Z,99332.22
2018-09-13T08:05:41.578Z,99329.93
2018-09-13T08:08:10.137Z,99321.66
2018-09-13T08:10:38.701Z,99332.34
2018-09-13T08:13:07.270Z,99331.91
2018-09-13T08:15:35.831Z,99331.54
2018-09-13T08:18:04.544Z,99334.12
2018-09-13T08:20:33.332Z,99328.63
2018-09-13T08:23:02.503Z,99327.53
2018-09-13T08:25:31.521Z,99331.41
2018-09-13T08:28:00.177Z,99332.66
2018-09-13T08:30:28.692Z,99325.25
2018-09-13T08:32:58.413Z,99335.37
2018-09-13T08:35:27.941Z,99335.30
2018-09-13T08:37:57.198Z,99348.28
2018-09-13T08:40:25.795Z,99340.45
2018-09-13T08:42:54.447Z,99337.31
2018-09-13T08:45:23.164Z,99332.75
2018-09-13T08:47:52.389Z,99322.44
2018-09-13T08:50:20.921Z,99323.53
2018-09-13T08:52:50.373Z,99318.70
2018-09-13T08:55:19.081Z,99324.08
2018-09-13T08:57:47.654Z,99332.48
2018-09-13T09:00:16.211Z,99347.95
2018-09-13T09:02:44.687Z,99365.47
2018-09-13T09:05:13.400Z,99373.87
2018-09-13T09:07:42.170Z,99362.50
2018-09-13T09:10:10.649Z,99356.80
2018-09-13T09:12:39.132Z,99363.44
2018-09-13T09:15:07.632Z,99365.17
2018-09-13T09:17:36.251Z,99359.23
2018-09-13T09:20:04.877Z,99362.61
2018-09-13T09:22:33.404Z,99360.86
2018-09-13T09:25:02.557Z,99358.47
2018-09-13T09:27:31.175Z,99372.16
2018-09-13T09:29:59.721Z,99375.33
2018-09-13T09:32:28.769Z,99375.50
2018-09-13T09:34:57.315Z,99368.98
2018-09-13T09:37:26.999Z,99360.69
2018-09-13T09:39:55.540Z,99368.09
2018-09-13T09:42:24.903Z,99367.05
2018-09-13T09:44:55.057Z,99364.60
2018-09-13T09:47:23.556Z,99361.11
2018-09-13T09:49:52.168Z,99356.55
2018-09-13T09:52:21.619Z,99363.43
2018-09-13T09:54:50.088Z,99368.02
2018-09-13T09:57:18.641Z,99362.66
2018-09-13T09:59:47.244Z,99355.28
2018-09-13T10:02:21.831Z,99363.73
2018-09-13T10:04:50.696Z,99363.23
2018-09-13T10:07:20.632Z,99368.36
2018-09-13T10:09:49.606Z,99362.86
2018-09-13T10:12:18.163Z,99362.85
2018-09-13T10:14:51.991Z,99365.97
2018-09-13T10:17:25.899Z,99355.59
2018-09-13T10:19:59.652Z,99355.81
2018-09-13T10:22:33.512Z,99363.38
2018-09-13T10:25:08.066Z,99358.96
2018-09-13T10:27:42.708Z,99358.28
2018-09-13T10:30:16.506Z,99361.36
2018-09-13T10:32:50.233Z,99359.02
2018-09-13T10:35:23.963Z,99356.08
2018-09-13T10:37:58.645Z,99353.78
2018-09-13T10:40:32.562Z,99351.91
2018-09-13T10:43:06.395Z,99347.55
2018-09-13T10:45:40.804Z,99353.78
2018-09-13T10:48:14.975Z,99345.43
2018-09-13T10:52:50.608Z,99344.24
2018-09-13T10:55:20.114Z,99332.65
2018-09-13T10:57:48.920Z,99321.47
2018-09-13T11:00:17.472Z,99326.38
2018-09-13T11:02:46.116Z,99326.06
2018-09-13T11:05:14.858Z,99323.77
2018-09-13T11:07:43.499Z,99321.95
2018-09-13T11:10:12.058Z,99323.16
2018-09-13T11:12:45.729Z,99332.47
2018-09-13T11:15:24.152Z,99334.52
2018-09-13T11:17:54.456Z,99327.39
2018-09-13T11:20:22.958Z,99320.41
2018-09-13T11:22:54.509Z,99323.22
2018-09-13T11:25:54.021Z,99325.22
2018-09-13T11:28:22.561Z,99324.80
2018-09-13T11:30:56.205Z,99320.44
2018-09-13T11:33:24.700Z,99325.88
2018-09-13T11:35:53.249Z,99320.06
2018-09-13T11:38:21.864Z,99322.00
2018-09-13T11:40:50.552Z,99321.25
2018-09-13T11:43:19.029Z,99326.14
2018-09-13T11:45:48.300Z,99331.86
2018-09-13T11:48:16.921Z,99329.23
2018-09-13T11:50:45.562Z,99322.96
2018-09-13T11:53:14.127Z,99330.87
2018-09-13T11:55:44.146Z,99326.83
2018-09-13T11:58:14.952Z,99331.48
2018-09-13T12:00:43.608Z,99336.91
2018-09-13T12:03:13.203Z,99330.56
2018-09-13T12:05:42.274Z,99335.26
2018-09-13T12:08:10.801Z,99332.13
2018-09-13T12:10:39.833Z,99327.03
2018-09-13T12:13:17.871Z,99325.98
2018-09-13T12:15:46.704Z,99322.66
2018-09-13T12:18:15.289Z,99329.32
2018-09-13T12:20:43.907Z,99324.18
2018-09-13T12:23:12.519Z,99332.52
2018-09-13T12:25:41.068Z,99330.95
2018-09-13T12:28:09.660Z,99332.00
2018-09-13T12:30:38.164Z,99318.41
2018-09-13T12:33:06.644Z,99321.57
2018-09-13T12:35:37.381Z,99323.47
2018-09-13T12:38:08.156Z,99326.96
2018-09-13T12:40:41.412Z,99324.33
2018-09-13T12:43:13.125Z,99326.72
2018-09-13T12:45:42.670Z,99323.28
2018-09-13T12:48:11.228Z,99319.63
2018-09-13T12:50:39.829Z,99318.69
2018-09-13T12:53:08.397Z,99285.58
2018-09-13T12:55:42.288Z,99312.67
2018-09-13T12:58:10.759Z,99313.08
2018-09-13T13:00:39.379Z,99318.80
2018-09-13T13:03:07.927Z,99318.81
2018-09-13T13:05:37.394Z,99314.78
2018-09-13T13:08:05.903Z,99312.86
2018-09-13T13:10:34.494Z,99304.92
2018-09-13T13:13:03.003Z,99302.50
2018-09-13T13:15:32.258Z,99303.00
2018-09-13T13:18:00.833Z,99303.39
2018-09-13T13:20:29.977Z,99294.88
2018-09-13T13:22:59.357Z,99300.04
2018-09-13T13:25:27.939Z,99295.15
2018-09-13T13:27:57.281Z,99297.07
2018-09-13T13:30:26.111Z,99291.22
2018-09-13T13:32:54.746Z,99296.39
2018-09-13T13:35:23.248Z,99296.23
2018-09-13T13:37:52.330Z,99296.93
2018-09-13T13:40:21.084Z,99286.53
2018-09-13T13:42:49.655Z,99285.18
2018-09-13T13:45:18.838Z,99286.59
2018-09-13T13:47:47.335Z,99284.87
2018-09-13T13:50:15.824Z,99286.39
2018-09-13T13:52:45.015Z,99289.35
2018-09-13T13:55:13.739Z,99284.95
2018-09-13T13:57:42.326Z,99285.92
2018-09-13T14:00:11.676Z,99279.22
2018-09-13T14:02:40.338Z,99278.65
2018-09-13T14:05:08.907Z,99269.44
2018-09-13T14:07:37.440Z,99266.63
2018-09-13T14:10:06.150Z,99272.28
2018-09-13T14:12:34.738Z,99273.28
2018-09-13T14:15:03.232Z,99276.08
2018-09-13T14:17:31.751Z,99274.23
2018-09-13T14:20:00.289Z,99280.80
2018-09-13T14:22:29.104Z,99280.19
2018-09-13T14:24:57.689Z,99281.84
2018-09-13T14:27:26.255Z,99276.21
2018-09-13T14:29:54.828Z,99286.86
2018-09-13T14:32:23.969Z,99276.31
2018-09-13T14:34:52.475Z,99283.22
2018-09-13T14:37:20.967Z,99289.16
2018-09-13T14:39:49.557Z,99286.59
2018-09-13T14:42:18.091Z,99287.02
2018-09-13T14:44:46.662Z,99287.21
2018-09-13T14:47:15.165Z,99281.19
2018-09-13T14:49:43.817Z,99202.96
2018-09-13T14:52:12.363Z,99288.02
2018-09-13T14:54:40.884Z,99288.48
2018-09-13T14:57:09.712Z,99286.73
2018-09-13T14:59:38.224Z,99290.42
2018-09-13T15:02:06.751Z,99282.20
2018-09-13T15:04:35.609Z,99284.41
2018-09-13T15:07:04.365Z,99282.44
2018-09-13T15:09:33.312Z,99287.19
2018-09-13T15:12:01.964Z,99285.33
2018-09-13T15:14:30.585Z,99291.69
2018-09-13T15:16:59.133Z,99292.12
2018-09-13T15:19:27.737Z,99287.80
2018-09-13T15:21:56.384Z,99298.32
2018-09-13T15:24:25.041Z,99303.08
2018-09-13T15:26:53.518Z,99302.39
2018-09-13T15:29:22.012Z,99298.26
2018-09-13T15:31:51.335Z,99288.22
2018-09-13T15:34:20.059Z,99284.73
2018-09-13T15:36:48.584Z,99283.55
2018-09-13T15:39:17.222Z,99285.76
2018-09-13T15:41:45.737Z,99280.38
2018-09-13T15:44:14.473Z,99276.10
2018-09-13T15:46:42.999Z,99271.69
2018-09-13T15:49:11.614Z,99269.92
2018-09-13T15:51:40.115Z,99272.17
2018-09-13T15:54:08.728Z,99273.31
2018-09-13T15:56:37.368Z,99279.94
2018-09-13T15:59:06.270Z,99278.88
2018-09-13T16:01:34.816Z,99275.57
2018-09-13T16:04:03.394Z,99269.05
2018-09-13T16:06:32.661Z,99270.48
2018-09-13T16:09:02.564Z,99275.02
2018-09-13T16:11:32.009Z,99277.04
2018-09-13T16:14:02.216Z,99274.75
2018-09-13T16:16:34.825Z,99277.44
2018-09-13T16:30:16.374Z,99267.20
2018-09-13T16:32:46.900Z,99272.90
2018-09-13T16:35:15.870Z,99273.52
2018-09-13T16:37:53.533Z,99277.86
2018-09-13T16:40:27.401Z,99280.24
2018-09-13T16:43:01.778Z,99276.40
2018-09-13T16:45:32.343Z,99283.13
2018-09-13T16:48:03.432Z,99269.63
2018-09-13T16:50:33.157Z,99269.39
2018-09-13T16:53:03.958Z,99270.37
2018-09-13T16:55:34.866Z,99274.52
2018-09-13T16:58:04.402Z,99280.57
2018-09-13T17:00:34.839Z,99286.34
2018-09-13T17:03:04.970Z,99294.48
2018-09-13T17:05:34.757Z,99289.91
2018-09-13T17:08:08.622Z,99296.33
2018-09-13T17:10:39.053Z,99293.42
2018-09-13T17:13:09.160Z,99297.04
2018-09-13T17:15:38.729Z,99292.58
2018-09-13T17:18:11.629Z,99303.20
2018-09-13T17:20:42.395Z,99305.84
2018-09-13T17:23:15.216Z,99310.78
2018-09-13T17:25:54.291Z,99308.56
2018-09-13T17:28:29.192Z,99306.66
2018-09-13T17:30:59.493Z,99303.19
2018-09-13T17:33:34.756Z,99306.25
2018-09-13T17:36:09.006Z,99306.61
2018-09-13T17:38:45.824Z,99314.53
2018-09-13T17:41:17.356Z,99311.63
2018-09-13T17:44:01.220Z,99323.14
2018-09-13T17:46:47.105Z,99321.98
2018-09-13T17:49:35.711Z,99322.39
2018-09-13T17:52:08.708Z,99326.42
2018-09-13T17:57:43.591Z,99319.67
2018-09-13T18:00:14.181Z,99325.20
2018-09-13T18:02:43.358Z,99331.52
2018-09-13T18:05:11.934Z,99330.25
2018-09-13T18:07:40.531Z,99332.41
2018-09-13T18:10:09.477Z,99333.49
2018-09-13T18:12:38.203Z,99332.29
2018-09-13T18:15:08.016Z,99332.88
2018-09-13T18:17:36.814Z,99336.89
2018-09-13T18:20:05.413Z,99342.15
2018-09-13T18:22:34.404Z,99338.72
2018-09-13T18:25:03.072Z,99339.45
2018-09-13T18:27:31.842Z,99343.20
2018-09-13T18:30:00.423Z,99342.23
2018-09-13T18:32:29.065Z,99343.00
2018-09-13T18:34:57.642Z,99352.14
2018-09-13T18:37:26.147Z,99352.98
2018-09-13T18:39:54.898Z,99360.43
2018-09-13T18:42:24.743Z,99361.20
2018-09-13T18:44:53.455Z,99369.29
2018-09-13T18:47:21.972Z,99374.44
2018-09-13T18:49:51.290Z,99373.16
2018-09-13T18:52:20.625Z,99376.83
2018-09-13T18:54:49.788Z,99378.98
2018-09-13T18:57:19.095Z,99380.72
2018-09-13T18:59:48.244Z,99386.71
2018-09-13T19:02:16.756Z,99386.83
2018-09-13T19:04:45.993Z,99392.13
2018-09-13T19:07:15.103Z,99390.91
2018-09-13T19:09:44.313Z,99392.63
2018-09-13T19:12:13.195Z,99388.96
2018-09-13T19:14:41.829Z,99391.60
2018-09-13T19:17:10.409Z,99398.01
2018-09-13T19:19:38.899Z,99404.02
2018-09-13T19:22:08.356Z,99402.02
2018-09-13T19:24:37.312Z,99397.95
2018-09-13T19:27:05.906Z,99404.34
2018-09-13T19:29:34.419Z,99401.25
2018-09-13T19:32:02.929Z,99404.52
2018-09-13T19:34:32.875Z,99411.03
2018-09-13T19:37:02.200Z,99410.34
2018-09-13T19:39:30.732Z,99415.25
2018-09-13T19:42:00.042Z,99413.63
2018-09-13T19:44:28.523Z,99421.83
2018-09-13T19:46:58.334Z,99426.06
2018-09-13T19:49:26.883Z,99419.24
2018-09-13T19:51:55.470Z,99418.44
2018-09-13T19:54:23.979Z,99419.23
2018-09-13T19:56:52.763Z,99429.23
2018-09-13T19:59:21.423Z,99425.11
2018-09-13T20:01:51.434Z,99427.31
2018-09-13T20:04:20.100Z,99432.84
2018-09-13T20:06:48.952Z,99432.84
2018-09-13T20:09:17.579Z,99439.22
2018-09-13T20:11:47.444Z,99440.06
2018-09-13T20:14:16.650Z,99433.69
2018-09-13T20:16:45.319Z,99437.87
2018-09-13T20:19:14.541Z,99435.84
2018-09-13T20:21:43.176Z,99437.37
2018-09-13T20:24:11.684Z,99445.73
2018-09-13T20:26:40.303Z,99443.21
2018-09-13T20:29:09.365Z,98636.33
2018-09-13T20:31:37.916Z,99446.23
2018-09-13T20:34:06.610Z,99448.06
2018-09-13T20:36:35.175Z,99449.41
2018-09-13T20:39:04.737Z,99447.57
2018-09-13T20:41:34.066Z,99442.53
2018-09-13T20:44:02.643Z,99445.50
2018-09-13T20:47:01.571Z,99446.35
2018-09-13T20:49:30.973Z,99442.81
2018-09-13T20:51:59.548Z,99451.03
2018-09-13T20:54:28.059Z,99445.13
2018-09-13T20:56:57.630Z,99442.41
2018-09-13T20:59:26.117Z,99440.41
2018-09-13T21:01:55.894Z,99437.56
2018-09-13T21:04:24.993Z,99439.55
2018-09-13T21:06:53.631Z,99436.22
2018-09-13T21:09:22.726Z,99442.72
2018-09-13T21:11:51.281Z,99440.41
2018-09-13T21:14:20.607Z,99443.15
2018-09-13T21:16:49.745Z,99439.81
2018-09-13T21:19:18.825Z,99443.55
2018-09-13T21:21:48.412Z,99444.57
2018-09-13T21:24:17.062Z,99440.70
2018-09-13T21:26:45.575Z,99443.52
2018-09-13T21:29:14.121Z,99445.17
2018-09-13T21:31:42.963Z,99445.17
2018-09-13T21:34:11.747Z,99446.16
2018-09-13T21:36:40.266Z,99445.83
2018-09-13T21:39:10.495Z,99442.66
2018-09-13T21:41:38.967Z,99452.37
2018-09-13T21:44:07.685Z,99449.86
2018-09-13T21:46:36.159Z,99454.41
2018-09-13T21:49:04.664Z,99452.25
2018-09-13T21:51:33.199Z,99451.76
2018-09-13T21:54:01.706Z,99418.76
2018-09-13T21:56:30.257Z,99445.59
2018-09-13T21:58:58.752Z,99447.76
2018-09-13T22:01:27.299Z,99450.09
2018-09-13T22:03:55.875Z,99447.10
2018-09-13T22:06:25.083Z,99445.24
2018-09-13T22:08:54.035Z,99449.92
2018-09-13T22:11:22.592Z,99450.97
2018-09-13T22:13:51.692Z,99444.91
2018-09-13T22:16:20.231Z,99448.10
2018-09-13T22:18:48.782Z,99451.13
2018-09-13T22:21:17.575Z,99449.30
2018-09-13T22:23:46.087Z,99445.27
2018-09-13T22:26:14.855Z,99444.41
2018-09-13T22:28:43.359Z,99447.08
2018-09-13T22:31:11.879Z,99449.10
2018-09-13T22:33:40.416Z,99454.30
2018-09-13T22:36:08.887Z,99449.10
2018-09-13T22:38:37.707Z,99452.30
2018-09-13T22:41:06.347Z,99449.09
2018-09-13T22:43:40.076Z,99454.43
2018-09-13T22:46:08.578Z,99454.46
2018-09-13T22:48:37.195Z,99453.77
2018-09-13T22:51:05.717Z,99452.59
2018-09-13T22:53:35.005Z,99456.97
2018-09-13T22:56:03.424Z,99452.97
2018-09-13T22:58:32.652Z,99453.61
2018-09-13T23:01:01.264Z,99450.59
2018-09-13T23:03:30.437Z,99453.97
2018-09-13T23:05:58.935Z,99454.64
2018-09-13T23:08:27.521Z,99455.30
2018-09-13T23:10:56.157Z,99449.95
2018-09-13T23:13:24.980Z,99446.09
2018-09-13T23:15:53.574Z,99454.63
2018-09-13T23:18:22.096Z,99458.67
2018-09-13T23:20:50.704Z,99450.26
2018-09-13T23:23:19.432Z,99448.08
2018-09-13T23:25:47.992Z,99453.11
2018-09-13T23:28:16.717Z,99454.47
2018-09-13T23:30:46.255Z,99455.77
2018-09-13T23:33:14.927Z,99455.45
2018-09-13T23:35:43.450Z,99449.91
2018-09-13T23:38:11.959Z,99451.61
2018-09-13T23:40:41.110Z,99458.66
2018-09-13T23:43:09.612Z,99455.96
2018-09-13T23:45:38.116Z,99455.45
2018-09-13T23:48:06.608Z,99452.45
2018-09-13T23:50:35.140Z,99456.31
2018-09-13T23:53:03.694Z,99452.64
2018-09-13T23:55:32.179Z,99459.66
2018-09-13T23:58:01.539Z,99455.97
